sensor_id;sensor_type;location;lat;lon;timestamp;P1;durP1;ratioP1;P2;durP2;ratioP2
11010;SDS011;5558;42.702;23.178;2022-10-22T00:01:20;20.13;;;17.93;;
11010;SDS011;5558;42.702;23.178;2022-10-22T00:03:48;20.57;;;17.47;;
11010;SDS011;5558;42.702;23.178;2022-10-22T00:06:16;22.10;;;17.63;;
11010;SDS011;5558;42.702;23.178;2022-10-22T00:08:43;19.90;;;17.03;;
11010;SDS011;5558;42.702;23.178;2022-10-22T00:11:10;22.47;;;18.30;;
11010;SDS011;5558;42.702;23.178;2022-10-22T00:13:38;21.67;;;17.80;;
11010;SDS011;5558;42.702;23.178;2022-10-22T00:16:04;21.23;;;17.70;;
11010;SDS011;5558;42.702;23.178;2022-10-22T00:18:31;19.13;;;16.67;;
11010;SDS011;5558;42.702;23.178;2022-10-22T00:20:58;19.70;;;17.13;;
11010;SDS011;5558;42.702;23.178;2022-10-22T00:23:26;19.43;;;16.83;;
11010;SDS011;5558;42.702;23.178;2022-10-22T00:25:53;20.20;;;17.43;;
11010;SDS011;5558;42.702;23.178;2022-10-22T00:28:20;19.33;;;16.70;;
11010;SDS011;5558;42.702;23.178;2022-10-22T00:30:46;18.90;;;16.70;;
11010;SDS011;5558;42.702;23.178;2022-10-22T00:33:13;19.77;;;17.03;;
11010;SDS011;5558;42.702;23.178;2022-10-22T00:35:40;18.90;;;16.90;;
11010;SDS011;5558;42.702;23.178;2022-10-22T00:38:06;19.13;;;16.73;;
11010;SDS011;5558;42.702;23.178;2022-10-22T00:40:34;24.83;;;20.43;;
11010;SDS011;5558;42.702;23.178;2022-10-22T00:43:01;23.23;;;18.07;;
11010;SDS011;5558;42.702;23.178;2022-10-22T00:45:28;20.40;;;17.97;;
11010;SDS011;5558;42.702;23.178;2022-10-22T00:47:56;21.63;;;17.47;;
11010;SDS011;5558;42.702;23.178;2022-10-22T00:50:27;18.73;;;16.63;;
11010;SDS011;5558;42.702;23.178;2022-10-22T00:52:56;20.33;;;17.33;;
11010;SDS011;5558;42.702;23.178;2022-10-22T00:55:25;18.80;;;16.80;;
11010;SDS011;5558;42.702;23.178;2022-10-22T00:57:55;20.37;;;17.50;;
11010;SDS011;5558;42.702;23.178;2022-10-22T01:00:23;21.20;;;17.27;;
11010;SDS011;5558;42.702;23.178;2022-10-22T01:02:50;19.20;;;16.83;;
11010;SDS011;5558;42.702;23.178;2022-10-22T01:05:20;19.27;;;16.63;;
11010;SDS011;5558;42.702;23.178;2022-10-22T01:07:48;20.13;;;17.07;;
11010;SDS011;5558;42.702;23.178;2022-10-22T01:10:23;19.90;;;17.43;;
11010;SDS011;5558;42.702;23.178;2022-10-22T01:13:04;20.80;;;18.47;;
11010;SDS011;5558;42.702;23.178;2022-10-22T01:15:42;19.53;;;17.43;;
11010;SDS011;5558;42.702;23.178;2022-10-22T01:18:16;21.67;;;18.67;;
11010;SDS011;5558;42.702;23.178;2022-10-22T01:20:55;23.13;;;19.10;;
11010;SDS011;5558;42.702;23.178;2022-10-22T01:23:32;20.47;;;18.33;;
11010;SDS011;5558;42.702;23.178;2022-10-22T01:26:32;21.77;;;18.30;;
11010;SDS011;5558;42.702;23.178;2022-10-22T01:29:09;21.10;;;18.50;;
11010;SDS011;5558;42.702;23.178;2022-10-22T01:31:40;22.90;;;18.43;;
11010;SDS011;5558;42.702;23.178;2022-10-22T01:34:11;22.53;;;18.80;;
11010;SDS011;5558;42.702;23.178;2022-10-22T01:36:41;22.13;;;18.83;;
11010;SDS011;5558;42.702;23.178;2022-10-22T01:39:10;22.63;;;19.27;;
11010;SDS011;5558;42.702;23.178;2022-10-22T01:41:41;25.63;;;19.83;;
11010;SDS011;5558;42.702;23.178;2022-10-22T01:44:22;23.93;;;20.47;;
11010;SDS011;5558;42.702;23.178;2022-10-22T01:46:50;24.40;;;20.83;;
11010;SDS011;5558;42.702;23.178;2022-10-22T01:49:24;25.20;;;21.10;;
11010;SDS011;5558;42.702;23.178;2022-10-22T01:51:58;29.00;;;22.53;;
11010;SDS011;5558;42.702;23.178;2022-10-22T01:54:33;27.20;;;21.47;;
11010;SDS011;5558;42.702;23.178;2022-10-22T01:57:11;24.67;;;20.47;;
11010;SDS011;5558;42.702;23.178;2022-10-22T01:59:47;25.40;;;20.90;;
11010;SDS011;5558;42.702;23.178;2022-10-22T02:02:24;26.60;;;20.97;;
11010;SDS011;5558;42.702;23.178;2022-10-22T02:04:59;25.10;;;20.40;;
11010;SDS011;5558;42.702;23.178;2022-10-22T02:07:31;22.83;;;18.93;;
11010;SDS011;5558;42.702;23.178;2022-10-22T02:10:03;21.77;;;18.33;;
11010;SDS011;5558;42.702;23.178;2022-10-22T02:12:31;21.97;;;19.13;;
11010;SDS011;5558;42.702;23.178;2022-10-22T02:15:02;21.07;;;18.20;;
11010;SDS011;5558;42.702;23.178;2022-10-22T02:17:30;20.10;;;17.60;;
11010;SDS011;5558;42.702;23.178;2022-10-22T02:20:00;19.83;;;17.63;;
11010;SDS011;5558;42.702;23.178;2022-10-22T02:22:31;24.67;;;20.47;;
11010;SDS011;5558;42.702;23.178;2022-10-22T02:24:58;20.57;;;18.37;;
11010;SDS011;5558;42.702;23.178;2022-10-22T02:27:26;23.27;;;19.50;;
11010;SDS011;5558;42.702;23.178;2022-10-22T02:29:58;23.13;;;19.77;;
11010;SDS011;5558;42.702;23.178;2022-10-22T02:32:30;23.17;;;20.47;;
11010;SDS011;5558;42.702;23.178;2022-10-22T02:35:00;24.90;;;20.57;;
11010;SDS011;5558;42.702;23.178;2022-10-22T02:37:28;23.73;;;20.37;;
11010;SDS011;5558;42.702;23.178;2022-10-22T02:39:55;23.97;;;20.73;;
11010;SDS011;5558;42.702;23.178;2022-10-22T02:42:22;22.57;;;19.97;;
11010;SDS011;5558;42.702;23.178;2022-10-22T02:44:50;23.53;;;20.67;;
11010;SDS011;5558;42.702;23.178;2022-10-22T02:47:18;24.80;;;20.50;;
11010;SDS011;5558;42.702;23.178;2022-10-22T02:49:45;22.17;;;19.30;;
11010;SDS011;5558;42.702;23.178;2022-10-22T02:52:12;22.97;;;20.00;;
11010;SDS011;5558;42.702;23.178;2022-10-22T02:54:39;22.43;;;19.20;;
11010;SDS011;5558;42.702;23.178;2022-10-22T02:57:05;23.60;;;20.53;;
11010;SDS011;5558;42.702;23.178;2022-10-22T02:59:32;23.97;;;20.37;;
11010;SDS011;5558;42.702;23.178;2022-10-22T03:01:59;23.83;;;20.17;;
11010;SDS011;5558;42.702;23.178;2022-10-22T03:04:27;25.17;;;21.77;;
11010;SDS011;5558;42.702;23.178;2022-10-22T03:06:54;23.23;;;20.23;;
11010;SDS011;5558;42.702;23.178;2022-10-22T03:09:20;24.53;;;21.10;;
11010;SDS011;5558;42.702;23.178;2022-10-22T03:11:47;24.13;;;20.47;;
11010;SDS011;5558;42.702;23.178;2022-10-22T03:14:14;23.10;;;19.83;;
11010;SDS011;5558;42.702;23.178;2022-10-22T03:16:40;23.20;;;18.70;;
11010;SDS011;5558;42.702;23.178;2022-10-22T03:19:07;20.53;;;18.33;;
11010;SDS011;5558;42.702;23.178;2022-10-22T03:21:36;20.10;;;18.00;;
11010;SDS011;5558;42.702;23.178;2022-10-22T03:24:06;21.67;;;18.87;;
11010;SDS011;5558;42.702;23.178;2022-10-22T03:26:37;20.50;;;17.60;;
11010;SDS011;5558;42.702;23.178;2022-10-22T03:29:05;20.37;;;17.30;;
11010;SDS011;5558;42.702;23.178;2022-10-22T03:31:32;22.67;;;19.00;;
11010;SDS011;5558;42.702;23.178;2022-10-22T03:33:59;22.50;;;18.47;;
11010;SDS011;5558;42.702;23.178;2022-10-22T03:36:26;20.93;;;18.60;;
11010;SDS011;5558;42.702;23.178;2022-10-22T03:38:54;20.63;;;18.40;;
11010;SDS011;5558;42.702;23.178;2022-10-22T03:41:21;20.37;;;17.97;;
11010;SDS011;5558;42.702;23.178;2022-10-22T03:43:47;22.27;;;19.07;;
11010;SDS011;5558;42.702;23.178;2022-10-22T03:46:17;20.80;;;18.27;;
11010;SDS011;5558;42.702;23.178;2022-10-22T03:48:43;21.97;;;18.27;;
11010;SDS011;5558;42.702;23.178;2022-10-22T03:51:10;22.77;;;19.70;;
11010;SDS011;5558;42.702;23.178;2022-10-22T03:53:37;22.67;;;18.90;;
11010;SDS011;5558;42.702;23.178;2022-10-22T03:56:07;21.13;;;18.50;;
11010;SDS011;5558;42.702;23.178;2022-10-22T03:58:35;19.70;;;17.40;;
11010;SDS011;5558;42.702;23.178;2022-10-22T04:01:05;20.93;;;17.30;;
11010;SDS011;5558;42.702;23.178;2022-10-22T04:03:32;21.43;;;18.53;;
11010;SDS011;5558;42.702;23.178;2022-10-22T04:06:00;21.27;;;17.97;;
11010;SDS011;5558;42.702;23.178;2022-10-22T04:08:27;19.87;;;16.80;;
11010;SDS011;5558;42.702;23.178;2022-10-22T04:10:54;20.70;;;17.50;;
11010;SDS011;5558;42.702;23.178;2022-10-22T04:13:22;20.93;;;17.23;;
11010;SDS011;5558;42.702;23.178;2022-10-22T04:15:49;23.20;;;17.93;;
11010;SDS011;5558;42.702;23.178;2022-10-22T04:18:16;20.67;;;17.73;;
11010;SDS011;5558;42.702;23.178;2022-10-22T04:20:43;20.47;;;18.00;;
11010;SDS011;5558;42.702;23.178;2022-10-22T04:23:10;19.30;;;16.80;;
11010;SDS011;5558;42.702;23.178;2022-10-22T04:25:37;20.60;;;17.80;;
11010;SDS011;5558;42.702;23.178;2022-10-22T04:28:05;19.10;;;16.20;;
11010;SDS011;5558;42.702;23.178;2022-10-22T04:30:33;18.40;;;15.67;;
11010;SDS011;5558;42.702;23.178;2022-10-22T04:33:00;18.87;;;16.87;;
11010;SDS011;5558;42.702;23.178;2022-10-22T04:35:27;19.57;;;17.00;;
11010;SDS011;5558;42.702;23.178;2022-10-22T04:37:54;19.67;;;16.20;;
11010;SDS011;5558;42.702;23.178;2022-10-22T04:40:21;19.43;;;16.43;;
11010;SDS011;5558;42.702;23.178;2022-10-22T04:42:48;19.67;;;16.90;;
11010;SDS011;5558;42.702;23.178;2022-10-22T04:45:15;19.73;;;16.63;;
11010;SDS011;5558;42.702;23.178;2022-10-22T04:47:43;20.70;;;17.27;;
11010;SDS011;5558;42.702;23.178;2022-10-22T04:50:10;21.17;;;17.00;;
11010;SDS011;5558;42.702;23.178;2022-10-22T04:52:37;19.63;;;17.53;;
11010;SDS011;5558;42.702;23.178;2022-10-22T04:55:04;20.73;;;17.30;;
11010;SDS011;5558;42.702;23.178;2022-10-22T04:57:31;22.63;;;17.87;;
11010;SDS011;5558;42.702;23.178;2022-10-22T04:59:58;21.03;;;17.63;;
11010;SDS011;5558;42.702;23.178;2022-10-22T05:02:25;26.93;;;20.20;;
11010;SDS011;5558;42.702;23.178;2022-10-22T05:04:53;23.40;;;19.63;;
11010;SDS011;5558;42.702;23.178;2022-10-22T05:07:19;29.10;;;22.27;;
11010;SDS011;5558;42.702;23.178;2022-10-22T05:09:47;26.13;;;20.80;;
11010;SDS011;5558;42.702;23.178;2022-10-22T05:12:14;24.83;;;20.10;;
11010;SDS011;5558;42.702;23.178;2022-10-22T05:14:41;25.17;;;19.70;;
11010;SDS011;5558;42.702;23.178;2022-10-22T05:17:08;22.87;;;18.83;;
11010;SDS011;5558;42.702;23.178;2022-10-22T05:19:34;23.50;;;19.20;;
11010;SDS011;5558;42.702;23.178;2022-10-22T05:22:03;23.17;;;18.67;;
11010;SDS011;5558;42.702;23.178;2022-10-22T05:24:31;21.57;;;18.17;;
11010;SDS011;5558;42.702;23.178;2022-10-22T05:27:00;20.73;;;18.20;;
11010;SDS011;5558;42.702;23.178;2022-10-22T05:29:27;21.57;;;17.67;;
11010;SDS011;5558;42.702;23.178;2022-10-22T05:31:54;23.70;;;18.73;;
11010;SDS011;5558;42.702;23.178;2022-10-22T05:34:21;19.63;;;17.53;;
11010;SDS011;5558;42.702;23.178;2022-10-22T05:36:47;21.00;;;17.20;;
11010;SDS011;5558;42.702;23.178;2022-10-22T05:39:15;20.00;;;17.30;;
11010;SDS011;5558;42.702;23.178;2022-10-22T05:41:42;20.00;;;17.30;;
11010;SDS011;5558;42.702;23.178;2022-10-22T05:44:09;20.97;;;18.07;;
11010;SDS011;5558;42.702;23.178;2022-10-22T05:46:37;20.43;;;17.47;;
11010;SDS011;5558;42.702;23.178;2022-10-22T05:49:04;18.80;;;16.77;;
11010;SDS011;5558;42.702;23.178;2022-10-22T05:51:32;19.50;;;15.73;;
11010;SDS011;5558;42.702;23.178;2022-10-22T05:54:01;20.13;;;16.10;;
11010;SDS011;5558;42.702;23.178;2022-10-22T05:56:33;18.20;;;15.87;;
11010;SDS011;5558;42.702;23.178;2022-10-22T05:59:00;17.23;;;15.23;;
11010;SDS011;5558;42.702;23.178;2022-10-22T06:01:28;18.23;;;15.70;;
11010;SDS011;5558;42.702;23.178;2022-10-22T06:03:56;19.17;;;16.03;;
11010;SDS011;5558;42.702;23.178;2022-10-22T06:06:26;18.77;;;15.40;;
11010;SDS011;5558;42.702;23.178;2022-10-22T06:08:55;16.07;;;14.13;;
11010;SDS011;5558;42.702;23.178;2022-10-22T06:11:26;15.17;;;13.37;;
11010;SDS011;5558;42.702;23.178;2022-10-22T06:13:54;16.17;;;12.57;;
11010;SDS011;5558;42.702;23.178;2022-10-22T06:16:21;14.13;;;11.50;;
11010;SDS011;5558;42.702;23.178;2022-10-22T06:18:48;13.57;;;11.33;;
11010;SDS011;5558;42.702;23.178;2022-10-22T06:21:14;14.13;;;11.40;;
11010;SDS011;5558;42.702;23.178;2022-10-22T06:23:42;13.67;;;11.00;;
11010;SDS011;5558;42.702;23.178;2022-10-22T06:26:09;13.07;;;11.00;;
11010;SDS011;5558;42.702;23.178;2022-10-22T06:28:36;14.00;;;11.33;;
11010;SDS011;5558;42.702;23.178;2022-10-22T06:31:05;14.20;;;11.27;;
11010;SDS011;5558;42.702;23.178;2022-10-22T06:33:32;11.83;;;10.47;;
11010;SDS011;5558;42.702;23.178;2022-10-22T06:36:06;12.20;;;10.17;;
11010;SDS011;5558;42.702;23.178;2022-10-22T06:38:34;12.00;;;10.03;;
11010;SDS011;5558;42.702;23.178;2022-10-22T06:41:01;12.40;;;10.90;;
11010;SDS011;5558;42.702;23.178;2022-10-22T06:43:28;11.23;;;10.03;;
11010;SDS011;5558;42.702;23.178;2022-10-22T06:45:57;11.53;;;9.40;;
11010;SDS011;5558;42.702;23.178;2022-10-22T06:48:26;12.43;;;9.77;;
11010;SDS011;5558;42.702;23.178;2022-10-22T06:50:53;12.47;;;10.00;;
11010;SDS011;5558;42.702;23.178;2022-10-22T06:53:20;12.93;;;10.00;;
11010;SDS011;5558;42.702;23.178;2022-10-22T06:55:47;12.10;;;9.87;;
11010;SDS011;5558;42.702;23.178;2022-10-22T06:58:13;12.57;;;10.37;;
11010;SDS011;5558;42.702;23.178;2022-10-22T07:00:40;13.13;;;10.63;;
11010;SDS011;5558;42.702;23.178;2022-10-22T07:03:07;12.43;;;11.03;;
11010;SDS011;5558;42.702;23.178;2022-10-22T07:05:38;13.67;;;11.60;;
11010;SDS011;5558;42.702;23.178;2022-10-22T07:08:05;13.27;;;11.60;;
11010;SDS011;5558;42.702;23.178;2022-10-22T07:10:32;13.43;;;11.77;;
11010;SDS011;5558;42.702;23.178;2022-10-22T07:12:59;14.60;;;11.90;;
11010;SDS011;5558;42.702;23.178;2022-10-22T07:15:25;13.73;;;12.23;;
11010;SDS011;5558;42.702;23.178;2022-10-22T07:17:52;17.13;;;13.23;;
11010;SDS011;5558;42.702;23.178;2022-10-22T07:20:19;12.23;;;10.93;;
11010;SDS011;5558;42.702;23.178;2022-10-22T07:22:47;13.33;;;11.37;;
11010;SDS011;5558;42.702;23.178;2022-10-22T07:25:14;13.00;;;10.93;;
11010;SDS011;5558;42.702;23.178;2022-10-22T07:27:40;13.03;;;11.30;;
11010;SDS011;5558;42.702;23.178;2022-10-22T07:30:07;11.27;;;10.10;;
11010;SDS011;5558;42.702;23.178;2022-10-22T07:32:34;11.83;;;10.63;;
11010;SDS011;5558;42.702;23.178;2022-10-22T07:35:01;12.83;;;11.20;;
11010;SDS011;5558;42.702;23.178;2022-10-22T07:37:28;11.60;;;10.40;;
11010;SDS011;5558;42.702;23.178;2022-10-22T07:39:56;12.33;;;10.33;;
11010;SDS011;5558;42.702;23.178;2022-10-22T07:42:23;12.43;;;10.50;;
11010;SDS011;5558;42.702;23.178;2022-10-22T07:44:50;12.10;;;10.80;;
11010;SDS011;5558;42.702;23.178;2022-10-22T07:47:16;12.30;;;10.90;;
11010;SDS011;5558;42.702;23.178;2022-10-22T07:49:43;13.60;;;10.93;;
11010;SDS011;5558;42.702;23.178;2022-10-22T07:52:10;14.70;;;10.83;;
11010;SDS011;5558;42.702;23.178;2022-10-22T07:54:36;11.87;;;10.50;;
11010;SDS011;5558;42.702;23.178;2022-10-22T07:57:04;13.03;;;11.37;;
11010;SDS011;5558;42.702;23.178;2022-10-22T07:59:31;13.03;;;11.60;;
11010;SDS011;5558;42.702;23.178;2022-10-22T08:01:58;14.27;;;11.73;;
11010;SDS011;5558;42.702;23.178;2022-10-22T08:04:24;13.73;;;11.40;;
11010;SDS011;5558;42.702;23.178;2022-10-22T08:06:51;13.63;;;11.47;;
11010;SDS011;5558;42.702;23.178;2022-10-22T08:09:18;13.87;;;12.13;;
11010;SDS011;5558;42.702;23.178;2022-10-22T08:11:44;13.70;;;11.80;;
11010;SDS011;5558;42.702;23.178;2022-10-22T08:14:13;16.27;;;12.60;;
11010;SDS011;5558;42.702;23.178;2022-10-22T08:16:39;16.47;;;12.30;;
11010;SDS011;5558;42.702;23.178;2022-10-22T08:19:06;15.77;;;12.47;;
11010;SDS011;5558;42.702;23.178;2022-10-22T08:21:33;15.73;;;12.33;;
11010;SDS011;5558;42.702;23.178;2022-10-22T08:23:59;15.87;;;13.30;;
11010;SDS011;5558;42.702;23.178;2022-10-22T08:26:26;15.23;;;12.90;;
11010;SDS011;5558;42.702;23.178;2022-10-22T08:28:53;15.23;;;13.60;;
11010;SDS011;5558;42.702;23.178;2022-10-22T08:31:21;14.43;;;12.90;;
11010;SDS011;5558;42.702;23.178;2022-10-22T08:33:47;15.07;;;12.47;;
11010;SDS011;5558;42.702;23.178;2022-10-22T08:36:14;14.73;;;12.30;;
11010;SDS011;5558;42.702;23.178;2022-10-22T08:38:41;14.40;;;11.27;;
11010;SDS011;5558;42.702;23.178;2022-10-22T08:41:09;15.17;;;11.90;;
11010;SDS011;5558;42.702;23.178;2022-10-22T08:43:47;13.03;;;11.53;;
11010;SDS011;5558;42.702;23.178;2022-10-22T08:46:32;14.77;;;12.37;;
11010;SDS011;5558;42.702;23.178;2022-10-22T08:49:11;14.43;;;11.63;;
11010;SDS011;5558;42.702;23.178;2022-10-22T08:51:44;15.97;;;12.40;;
11010;SDS011;5558;42.702;23.178;2022-10-22T08:57:03;16.80;;;14.60;;
11010;SDS011;5558;42.702;23.178;2022-10-22T08:59:45;23.70;;;15.87;;
11010;SDS011;5558;42.702;23.178;2022-10-22T09:02:17;18.30;;;14.63;;
11010;SDS011;5558;42.702;23.178;2022-10-22T09:04:53;18.77;;;13.97;;
11010;SDS011;5558;42.702;23.178;2022-10-22T09:07:25;17.67;;;14.83;;
11010;SDS011;5558;42.702;23.178;2022-10-22T09:09:51;19.17;;;15.23;;
11010;SDS011;5558;42.702;23.178;2022-10-22T09:12:22;18.13;;;13.27;;
11010;SDS011;5558;42.702;23.178;2022-10-22T09:14:52;18.37;;;15.50;;
11010;SDS011;5558;42.702;23.178;2022-10-22T09:17:23;20.93;;;16.00;;
11010;SDS011;5558;42.702;23.178;2022-10-22T09:19:59;20.50;;;15.07;;
11010;SDS011;5558;42.702;23.178;2022-10-22T09:22:34;15.97;;;13.83;;
11010;SDS011;5558;42.702;23.178;2022-10-22T09:25:11;17.13;;;14.57;;
11010;SDS011;5558;42.702;23.178;2022-10-22T09:27:43;18.33;;;15.30;;
11010;SDS011;5558;42.702;23.178;2022-10-22T09:30:10;18.00;;;14.37;;
11010;SDS011;5558;42.702;23.178;2022-10-22T09:32:42;18.17;;;14.43;;
11010;SDS011;5558;42.702;23.178;2022-10-22T09:35:09;18.40;;;15.27;;
11010;SDS011;5558;42.702;23.178;2022-10-22T09:37:46;18.37;;;15.23;;
11010;SDS011;5558;42.702;23.178;2022-10-22T09:40:14;18.50;;;14.87;;
11010;SDS011;5558;42.702;23.178;2022-10-22T09:42:42;17.63;;;14.27;;
11010;SDS011;5558;42.702;23.178;2022-10-22T09:45:14;18.43;;;14.87;;
11010;SDS011;5558;42.702;23.178;2022-10-22T09:47:45;16.53;;;13.83;;
11010;SDS011;5558;42.702;23.178;2022-10-22T09:50:18;18.20;;;13.90;;
11010;SDS011;5558;42.702;23.178;2022-10-22T09:52:53;16.93;;;13.90;;
11010;SDS011;5558;42.702;23.178;2022-10-22T09:55:23;16.33;;;12.80;;
11010;SDS011;5558;42.702;23.178;2022-10-22T09:57:54;14.70;;;12.97;;
11010;SDS011;5558;42.702;23.178;2022-10-22T10:00:23;18.57;;;14.73;;
11010;SDS011;5558;42.702;23.178;2022-10-22T10:02:54;18.23;;;13.63;;
11010;SDS011;5558;42.702;23.178;2022-10-22T10:05:26;15.47;;;13.43;;
11010;SDS011;5558;42.702;23.178;2022-10-22T10:07:55;16.50;;;13.10;;
11010;SDS011;5558;42.702;23.178;2022-10-22T10:10:26;15.97;;;12.83;;
11010;SDS011;5558;42.702;23.178;2022-10-22T10:13:01;16.30;;;12.87;;
11010;SDS011;5558;42.702;23.178;2022-10-22T10:15:37;15.23;;;12.80;;
11010;SDS011;5558;42.702;23.178;2022-10-22T10:18:11;16.57;;;12.63;;
11010;SDS011;5558;42.702;23.178;2022-10-22T10:20:50;16.60;;;13.43;;
11010;SDS011;5558;42.702;23.178;2022-10-22T10:23:26;18.33;;;13.20;;
11010;SDS011;5558;42.702;23.178;2022-10-22T10:25:59;16.23;;;13.17;;
11010;SDS011;5558;42.702;23.178;2022-10-22T10:31:20;17.70;;;12.50;;
11010;SDS011;5558;42.702;23.178;2022-10-22T10:33:58;16.27;;;13.67;;
11010;SDS011;5558;42.702;23.178;2022-10-22T10:36:37;18.23;;;14.10;;
11010;SDS011;5558;42.702;23.178;2022-10-22T10:39:11;15.97;;;12.77;;
11010;SDS011;5558;42.702;23.178;2022-10-22T10:41:46;16.40;;;13.70;;
11010;SDS011;5558;42.702;23.178;2022-10-22T10:44:25;16.10;;;13.77;;
11010;SDS011;5558;42.702;23.178;2022-10-22T10:47:10;17.47;;;12.90;;
11010;SDS011;5558;42.702;23.178;2022-10-22T10:49:45;16.30;;;12.47;;
11010;SDS011;5558;42.702;23.178;2022-10-22T10:52:13;17.40;;;13.77;;
11010;SDS011;5558;42.702;23.178;2022-10-22T10:54:46;19.53;;;14.93;;
11010;SDS011;5558;42.702;23.178;2022-10-22T10:57:23;20.70;;;16.20;;
11010;SDS011;5558;42.702;23.178;2022-10-22T11:00:04;58.67;;;36.87;;
11010;SDS011;5558;42.702;23.178;2022-10-22T11:05:42;18.03;;;14.77;;
11010;SDS011;5558;42.702;23.178;2022-10-22T11:08:12;20.13;;;14.80;;
11010;SDS011;5558;42.702;23.178;2022-10-22T11:10:43;17.47;;;14.03;;
11010;SDS011;5558;42.702;23.178;2022-10-22T11:13:13;16.93;;;14.70;;
11010;SDS011;5558;42.702;23.178;2022-10-22T11:15:46;20.20;;;16.17;;
11010;SDS011;5558;42.702;23.178;2022-10-22T11:18:19;19.60;;;15.30;;
11010;SDS011;5558;42.702;23.178;2022-10-22T11:20:56;20.93;;;14.90;;
11010;SDS011;5558;42.702;23.178;2022-10-22T11:23:35;20.70;;;15.53;;
11010;SDS011;5558;42.702;23.178;2022-10-22T11:26:05;20.03;;;15.83;;
11010;SDS011;5558;42.702;23.178;2022-10-22T11:28:39;18.53;;;14.67;;
11010;SDS011;5558;42.702;23.178;2022-10-22T11:31:12;19.50;;;15.57;;
11010;SDS011;5558;42.702;23.178;2022-10-22T11:33:41;20.33;;;15.63;;
11010;SDS011;5558;42.702;23.178;2022-10-22T11:36:16;22.40;;;15.40;;
11010;SDS011;5558;42.702;23.178;2022-10-22T11:38:44;20.23;;;14.90;;
11010;SDS011;5558;42.702;23.178;2022-10-22T11:41:12;19.13;;;14.97;;
11010;SDS011;5558;42.702;23.178;2022-10-22T11:43:51;17.77;;;14.03;;
11010;SDS011;5558;42.702;23.178;2022-10-22T11:46:24;17.77;;;13.53;;
11010;SDS011;5558;42.702;23.178;2022-10-22T11:49:01;16.97;;;13.50;;
11010;SDS011;5558;42.702;23.178;2022-10-22T11:51:35;17.27;;;13.97;;
11010;SDS011;5558;42.702;23.178;2022-10-22T11:54:25;17.00;;;14.83;;
11010;SDS011;5558;42.702;23.178;2022-10-22T11:56:57;16.60;;;14.17;;
11010;SDS011;5558;42.702;23.178;2022-10-22T11:59:39;16.93;;;13.73;;
11010;SDS011;5558;42.702;23.178;2022-10-22T12:02:22;15.50;;;12.87;;
11010;SDS011;5558;42.702;23.178;2022-10-22T12:05:11;19.83;;;13.87;;
11010;SDS011;5558;42.702;23.178;2022-10-22T12:07:50;18.33;;;13.70;;
11010;SDS011;5558;42.702;23.178;2022-10-22T12:10:21;15.70;;;13.20;;
11010;SDS011;5558;42.702;23.178;2022-10-22T12:12:54;18.00;;;13.60;;
11010;SDS011;5558;42.702;23.178;2022-10-22T12:15:23;19.07;;;13.67;;
11010;SDS011;5558;42.702;23.178;2022-10-22T12:17:55;19.20;;;14.17;;
11010;SDS011;5558;42.702;23.178;2022-10-22T12:20:27;18.57;;;13.83;;
11010;SDS011;5558;42.702;23.178;2022-10-22T12:22:55;14.80;;;12.60;;
11010;SDS011;5558;42.702;23.178;2022-10-22T12:25:24;17.07;;;13.67;;
11010;SDS011;5558;42.702;23.178;2022-10-22T12:27:56;16.67;;;13.60;;
11010;SDS011;5558;42.702;23.178;2022-10-22T12:30:25;16.67;;;13.50;;
11010;SDS011;5558;42.702;23.178;2022-10-22T12:32:53;15.53;;;12.27;;
11010;SDS011;5558;42.702;23.178;2022-10-22T12:35:23;16.00;;;13.50;;
11010;SDS011;5558;42.702;23.178;2022-10-22T12:37:53;17.23;;;12.50;;
11010;SDS011;5558;42.702;23.178;2022-10-22T12:40:22;15.73;;;13.23;;
11010;SDS011;5558;42.702;23.178;2022-10-22T12:42:51;15.77;;;12.50;;
11010;SDS011;5558;42.702;23.178;2022-10-22T12:45:19;18.20;;;12.83;;
11010;SDS011;5558;42.702;23.178;2022-10-22T12:47:46;14.00;;;12.10;;
11010;SDS011;5558;42.702;23.178;2022-10-22T12:50:15;17.13;;;12.30;;
11010;SDS011;5558;42.702;23.178;2022-10-22T12:52:43;16.70;;;12.50;;
11010;SDS011;5558;42.702;23.178;2022-10-22T12:55:15;16.00;;;12.13;;
11010;SDS011;5558;42.702;23.178;2022-10-22T12:57:44;16.90;;;11.53;;
11010;SDS011;5558;42.702;23.178;2022-10-22T13:00:20;14.77;;;11.17;;
11010;SDS011;5558;42.702;23.178;2022-10-22T13:02:48;15.57;;;11.80;;
11010;SDS011;5558;42.702;23.178;2022-10-22T13:05:20;14.40;;;11.53;;
11010;SDS011;5558;42.702;23.178;2022-10-22T13:07:51;15.83;;;10.60;;
11010;SDS011;5558;42.702;23.178;2022-10-22T13:10:23;15.80;;;11.57;;
11010;SDS011;5558;42.702;23.178;2022-10-22T13:12:53;13.77;;;10.57;;
11010;SDS011;5558;42.702;23.178;2022-10-22T13:15:22;14.30;;;10.37;;
11010;SDS011;5558;42.702;23.178;2022-10-22T13:18:03;13.83;;;10.70;;
11010;SDS011;5558;42.702;23.178;2022-10-22T13:20:32;13.67;;;10.73;;
11010;SDS011;5558;42.702;23.178;2022-10-22T13:23:01;15.17;;;10.83;;
11010;SDS011;5558;42.702;23.178;2022-10-22T13:25:31;12.10;;;9.83;;
11010;SDS011;5558;42.702;23.178;2022-10-22T13:28:00;10.93;;;9.70;;
11010;SDS011;5558;42.702;23.178;2022-10-22T13:30:28;12.80;;;9.23;;
11010;SDS011;5558;42.702;23.178;2022-10-22T13:32:57;12.00;;;9.20;;
11010;SDS011;5558;42.702;23.178;2022-10-22T13:35:26;12.50;;;9.83;;
11010;SDS011;5558;42.702;23.178;2022-10-22T13:37:54;12.27;;;10.50;;
11010;SDS011;5558;42.702;23.178;2022-10-22T13:40:21;11.97;;;9.77;;
11010;SDS011;5558;42.702;23.178;2022-10-22T13:42:49;14.80;;;9.90;;
11010;SDS011;5558;42.702;23.178;2022-10-22T13:45:16;11.77;;;9.33;;
11010;SDS011;5558;42.702;23.178;2022-10-22T13:47:44;11.97;;;9.57;;
11010;SDS011;5558;42.702;23.178;2022-10-22T13:50:16;12.40;;;8.57;;
11010;SDS011;5558;42.702;23.178;2022-10-22T13:52:44;10.83;;;9.10;;
11010;SDS011;5558;42.702;23.178;2022-10-22T13:55:13;11.97;;;9.50;;
11010;SDS011;5558;42.702;23.178;2022-10-22T13:57:42;12.03;;;8.83;;
11010;SDS011;5558;42.702;23.178;2022-10-22T14:00:12;10.80;;;9.00;;
11010;SDS011;5558;42.702;23.178;2022-10-22T14:02:40;13.87;;;9.33;;
11010;SDS011;5558;42.702;23.178;2022-10-22T14:05:08;14.10;;;9.27;;
11010;SDS011;5558;42.702;23.178;2022-10-22T14:07:35;13.67;;;9.80;;
11010;SDS011;5558;42.702;23.178;2022-10-22T14:10:05;12.47;;;9.40;;
11010;SDS011;5558;42.702;23.178;2022-10-22T14:12:39;11.30;;;8.23;;
11010;SDS011;5558;42.702;23.178;2022-10-22T14:15:06;11.77;;;8.73;;
11010;SDS011;5558;42.702;23.178;2022-10-22T14:17:35;10.97;;;8.23;;
11010;SDS011;5558;42.702;23.178;2022-10-22T14:20:03;11.33;;;8.33;;
11010;SDS011;5558;42.702;23.178;2022-10-22T14:22:30;11.37;;;7.73;;
11010;SDS011;5558;42.702;23.178;2022-10-22T14:24:57;13.50;;;8.47;;
11010;SDS011;5558;42.702;23.178;2022-10-22T14:27:23;9.87;;;7.53;;
11010;SDS011;5558;42.702;23.178;2022-10-22T14:29:50;10.77;;;7.67;;
11010;SDS011;5558;42.702;23.178;2022-10-22T14:32:17;11.77;;;7.97;;
11010;SDS011;5558;42.702;23.178;2022-10-22T14:34:46;9.37;;;7.73;;
11010;SDS011;5558;42.702;23.178;2022-10-22T14:37:14;10.20;;;7.90;;
11010;SDS011;5558;42.702;23.178;2022-10-22T14:39:43;11.97;;;7.80;;
11010;SDS011;5558;42.702;23.178;2022-10-22T14:42:15;12.10;;;7.70;;
11010;SDS011;5558;42.702;23.178;2022-10-22T14:44:43;9.77;;;8.00;;
11010;SDS011;5558;42.702;23.178;2022-10-22T14:47:09;10.80;;;8.27;;